createdAt,value
2022-11-07T00:03:43.972Z,11.50
2022-11-07T00:10:26.297Z,11.60
2022-11-07T00:17:09.651Z,11.50
2022-11-07T00:23:52.053Z,11.40
2022-11-07T00:30:34.325Z,11.30
2022-11-07T00:37:16.638Z,11.20
2022-11-07T00:43:58.994Z,11.20
2022-11-07T00:50:41.321Z,11.20
2022-11-07T00:57:23.994Z,11.30
2022-11-07T01:04:24.812Z,11.30
2022-11-07T01:11:07.897Z,11.40
2022-11-07T01:17:50.413Z,11.40
2022-11-07T01:24:32.758Z,11.30
2022-11-07T01:31:16.366Z,11.00
2022-11-07T01:37:58.692Z,10.90
2022-11-07T01:44:52.474Z,10.90
2022-11-07T01:51:41.419Z,10.90
2022-11-07T01:58:23.830Z,10.90
2022-11-07T02:05:08.804Z,11.00
2022-11-07T02:11:51.928Z,11.00
2022-11-07T02:18:36.738Z,11.10
2022-11-07T02:25:20.201Z,11.20
2022-11-07T02:32:08.766Z,11.20
2022-11-07T02:38:57.418Z,11.10
2022-11-07T02:45:43.432Z,11.10
2022-11-07T02:52:25.728Z,11.20
2022-11-07T02:59:08.052Z,11.30
2022-11-07T03:05:50.398Z,11.40
2022-11-07T03:12:32.701Z,11.40
2022-11-07T03:19:15.214Z,11.50
2022-11-07T03:25:57.516Z,11.50
2022-11-07T03:32:39.842Z,11.60
2022-11-07T03:39:25.822Z,11.70
2022-11-07T03:46:08.353Z,11.80
2022-11-07T03:52:50.646Z,11.80
2022-11-07T03:59:33.134Z,11.90
2022-11-07T04:06:15.473Z,12.00
2022-11-07T04:13:16.898Z,12.10
2022-11-07T04:19:59.378Z,12.00
2022-11-07T04:27:00.274Z,11.90
2022-11-07T04:33:42.821Z,12.00
2022-11-07T04:40:26.055Z,11.90
2022-11-07T04:47:08.375Z,11.90
2022-11-07T04:53:50.704Z,12.00
2022-11-07T05:00:33.284Z,12.00
2022-11-07T05:07:15.674Z,11.90
2022-11-07T05:13:57.936Z,11.90
2022-11-07T05:20:40.718Z,11.80
2022-11-07T05:27:23.992Z,11.60
2022-11-07T05:34:09.687Z,11.40
2022-11-07T05:40:54.455Z,11.20
2022-11-07T05:47:36.733Z,11.10
2022-11-07T05:54:19.103Z,11.00
2022-11-07T06:01:06.088Z,11.00
2022-11-07T06:07:48.454Z,11.00
2022-11-07T06:14:30.825Z,11.00
2022-11-07T06:21:13.930Z,11.00
2022-11-07T06:28:11.105Z,11.00
2022-11-07T06:34:53.441Z,11.00
2022-11-07T06:41:35.756Z,11.00
2022-11-07T06:48:18.033Z,11.20
2022-11-07T06:55:00.338Z,11.40
2022-11-07T07:01:42.724Z,11.60
2022-11-07T07:08:25.176Z,11.70
2022-11-07T07:15:08.358Z,11.90
2022-11-07T07:22:03.775Z,12.20
2022-11-07T07:28:46.373Z,12.30
2022-11-07T07:35:28.727Z,12.60
2022-11-07T07:42:16.304Z,12.90
2022-11-07T07:49:00.655Z,13.30
2022-11-07T07:55:43.527Z,13.90
2022-11-07T08:02:25.904Z,14.60
2022-11-07T08:09:08.258Z,15.50
2022-11-07T08:15:51.774Z,16.10
2022-11-07T08:22:34.083Z,15.30
2022-11-07T08:29:16.449Z,15.10
2022-11-07T08:36:02.612Z,14.70
2022-11-07T08:42:44.930Z,14.40
2022-11-07T08:49:27.238Z,14.00
2022-11-07T08:56:10.487Z,14.20
2022-11-07T09:09:55.466Z,14.70
2022-11-07T09:16:37.759Z,14.80
2022-11-07T09:23:20.579Z,15.40
2022-11-07T09:30:04.455Z,15.60
2022-11-07T09:36:46.802Z,15.60
2022-11-07T09:43:42.297Z,15.60
2022-11-07T09:50:32.980Z,15.60
2022-11-07T09:57:17.533Z,15.60
2022-11-07T10:11:15.444Z,15.80
2022-11-07T10:18:33.213Z,15.80
2022-11-07T10:25:58.057Z,15.70
2022-11-07T10:33:11.175Z,15.80
2022-11-07T10:39:54.051Z,15.60
2022-11-07T10:46:39.413Z,15.70
2022-11-07T10:53:23.511Z,16.10
2022-11-07T11:00:25.157Z,16.30
2022-11-07T11:07:15.362Z,16.30
2022-11-07T11:14:06.537Z,16.50
2022-11-07T11:21:03.344Z,16.30
2022-11-07T11:27:48.801Z,16.80
2022-11-07T11:34:49.234Z,17.10
2022-11-07T11:41:47.834Z,17.20
2022-11-07T11:48:48.517Z,17.30
2022-11-07T11:55:39.109Z,17.50
2022-11-07T12:02:30.348Z,17.60
2022-11-07T12:09:21.779Z,17.70
2022-11-07T12:16:04.043Z,17.60
2022-11-07T12:23:10.267Z,17.40
2022-11-07T12:30:01.659Z,17.50
2022-11-07T12:37:14.034Z,17.40
2022-11-07T12:44:17.791Z,17.60
2022-11-07T12:51:35.199Z,17.70
2022-11-07T12:58:38.990Z,17.70
2022-11-07T13:06:03.231Z,17.60
2022-11-07T13:13:06.703Z,17.50
2022-11-07T13:20:05.681Z,17.10
2022-11-07T13:26:48.517Z,16.90
2022-11-07T13:33:48.347Z,17.20
2022-11-07T13:40:52.639Z,17.50
2022-11-07T13:47:40.936Z,17.40
2022-11-07T13:54:28.768Z,17.20
2022-11-07T14:01:13.072Z,17.10
2022-11-07T14:08:00.702Z,17.20
2022-11-07T14:14:43.344Z,17.10
2022-11-07T14:21:31.927Z,17.10
2022-11-07T14:28:16.633Z,17.00
2022-11-07T14:35:00.122Z,16.90
2022-11-07T14:41:43.876Z,16.80
2022-11-07T14:48:28.286Z,16.60
2022-11-07T14:55:26.706Z,16.40
2022-11-07T15:02:31.635Z,16.40
2022-11-07T15:09:14.073Z,16.40
2022-11-07T15:16:13.779Z,16.40
2022-11-07T15:22:56.721Z,16.30
2022-11-07T15:29:39.773Z,16.30
2022-11-07T15:36:22.660Z,16.20
2022-11-07T15:43:04.987Z,16.00
2022-11-07T15:49:48.444Z,15.80
2022-11-07T15:56:30.782Z,15.70
2022-11-07T16:03:16.032Z,15.60
2022-11-07T16:09:58.455Z,15.60
2022-11-07T16:16:44.252Z,15.40
2022-11-07T16:23:26.759Z,15.20
2022-11-07T16:30:15.821Z,15.00
2022-11-07T16:36:58.154Z,14.80
2022-11-07T16:43:40.957Z,14.40
2022-11-07T16:50:23.462Z,14.10
2022-11-07T16:57:14.296Z,13.90
2022-11-07T17:03:56.647Z,13.70
2022-11-07T17:10:39.004Z,13.60
2022-11-07T17:17:21.502Z,13.40
2022-11-07T17:24:05.305Z,13.20
2022-11-07T17:30:47.908Z,13.00
2022-11-07T17:37:30.207Z,12.90
2022-11-07T17:44:12.998Z,12.70
2022-11-07T17:50:55.549Z,12.50
2022-11-07T17:57:42.376Z,12.30
2022-11-07T18:04:24.704Z,12.20
2022-11-07T18:11:07.326Z,12.10
2022-11-07T18:17:49.676Z,12.00
2022-11-07T18:24:32.325Z,11.90
2022-11-07T18:31:16.801Z,12.00
2022-11-07T18:37:59.168Z,12.20
2022-11-07T18:44:41.635Z,12.10
2022-11-07T18:51:24.643Z,12.00
2022-11-07T18:58:07.192Z,11.90
2022-11-07T19:04:49.534Z,11.70
2022-11-07T19:11:33.869Z,11.70
2022-11-07T19:18:16.686Z,11.60
2022-11-07T19:24:59.210Z,11.40
2022-11-07T19:31:41.567Z,11.40
2022-11-07T19:38:23.901Z,11.50
2022-11-07T19:45:07.146Z,11.50
2022-11-07T19:51:49.534Z,11.50
2022-11-07T19:58:31.880Z,11.50
2022-11-07T20:05:23.746Z,11.50
2022-11-07T20:12:06.354Z,11.40
2022-11-07T20:18:52.275Z,11.30
2022-11-07T20:25:34.688Z,12.60
2022-11-07T20:32:21.836Z,12.40
2022-11-07T20:39:04.496Z,10.80
2022-11-07T20:45:46.908Z,10.60
2022-11-07T20:52:29.241Z,10.50
2022-11-07T20:59:11.898Z,10.50
2022-11-07T21:05:54.809Z,10.40
2022-11-07T21:12:37.357Z,10.40
2022-11-07T21:19:19.679Z,10.30
2022-11-07T21:26:06.511Z,10.30
2022-11-07T21:32:48.834Z,10.20
2022-11-07T21:39:31.182Z,10.20
2022-11-07T21:46:19.116Z,10.20
2022-11-07T22:13:11.761Z,10.20
2022-11-07T22:40:05.631Z,9.90
2022-11-07T22:46:47.989Z,9.40
2022-11-07T22:53:30.586Z,9.80
2022-11-07T23:00:21.453Z,9.20
2022-11-07T23:07:04.209Z,9.10
2022-11-07T23:13:46.578Z,9.10
2022-11-07T23:20:47.476Z,9.10
2022-11-07T23:27:29.860Z,9.10
2022-11-07T23:34:12.286Z,9.10
2022-11-07T23:40:55.591Z,9.20
2022-11-07T23:47:56.463Z,9.20
2022-11-07T23:54:57.481Z,9.20
